sensor_id;sensor_type;location;lat;lon;timestamp;P1;durP1;ratioP1;P2;durP2;ratioP2
10805;SDS011;5455;53.224;6.000;2022-09-09T00:04:27;6.43;;;2.87;;
10805;SDS011;5455;53.224;6.000;2022-09-09T00:07:07;3.37;;;2.70;;
10805;SDS011;5455;53.224;6.000;2022-09-09T00:09:46;5.63;;;2.90;;
10805;SDS011;5455;53.224;6.000;2022-09-09T00:12:27;4.10;;;2.40;;
10805;SDS011;5455;53.224;6.000;2022-09-09T00:15:02;3.27;;;2.60;;
10805;SDS011;5455;53.224;6.000;2022-09-09T00:17:47;3.30;;;2.77;;
10805;SDS011;5455;53.224;6.000;2022-09-09T00:21:08;5.20;;;2.53;;
10805;SDS011;5455;53.224;6.000;2022-09-09T00:23:55;3.10;;;2.77;;
10805;SDS011;5455;53.224;6.000;2022-09-09T00:26:39;4.37;;;2.73;;
10805;SDS011;5455;53.224;6.000;2022-09-09T00:32:14;3.60;;;3.03;;
10805;SDS011;5455;53.224;6.000;2022-09-09T00:34:49;5.60;;;3.00;;
10805;SDS011;5455;53.224;6.000;2022-09-09T00:37:20;8.13;;;2.73;;
10805;SDS011;5455;53.224;6.000;2022-09-09T00:39:53;3.17;;;2.77;;
10805;SDS011;5455;53.224;6.000;2022-09-09T00:42:31;5.83;;;2.90;;
10805;SDS011;5455;53.224;6.000;2022-09-09T00:47:50;3.47;;;2.87;;
10805;SDS011;5455;53.224;6.000;2022-09-09T00:50:25;3.60;;;2.73;;
10805;SDS011;5455;53.224;6.000;2022-09-09T00:53:10;5.70;;;3.33;;
10805;SDS011;5455;53.224;6.000;2022-09-09T00:55:44;4.67;;;2.67;;
10805;SDS011;5455;53.224;6.000;2022-09-09T00:58:34;4.77;;;2.73;;
10805;SDS011;5455;53.224;6.000;2022-09-09T01:01:05;4.73;;;2.70;;
10805;SDS011;5455;53.224;6.000;2022-09-09T01:03:37;5.43;;;2.80;;
10805;SDS011;5455;53.224;6.000;2022-09-09T01:06:29;4.20;;;3.00;;
10805;SDS011;5455;53.224;6.000;2022-09-09T01:09:05;4.00;;;2.80;;
10805;SDS011;5455;53.224;6.000;2022-09-09T01:17:05;6.30;;;3.30;;
10805;SDS011;5455;53.224;6.000;2022-09-09T01:22:15;4.60;;;2.83;;
10805;SDS011;5455;53.224;6.000;2022-09-09T01:27:53;3.93;;;2.90;;
10805;SDS011;5455;53.224;6.000;2022-09-09T01:30:23;4.20;;;2.93;;
10805;SDS011;5455;53.224;6.000;2022-09-09T01:32:55;4.73;;;2.87;;
10805;SDS011;5455;53.224;6.000;2022-09-09T01:38:00;4.47;;;2.87;;
10805;SDS011;5455;53.224;6.000;2022-09-09T01:40:27;3.33;;;2.53;;
10805;SDS011;5455;53.224;6.000;2022-09-09T01:42:56;7.57;;;3.27;;
10805;SDS011;5455;53.224;6.000;2022-09-09T01:45:23;4.50;;;2.90;;
10805;SDS011;5455;53.224;6.000;2022-09-09T01:47:53;2.97;;;2.43;;
10805;SDS011;5455;53.224;6.000;2022-09-09T01:50:40;5.20;;;2.80;;
10805;SDS011;5455;53.224;6.000;2022-09-09T01:53:08;5.47;;;3.07;;
10805;SDS011;5455;53.224;6.000;2022-09-09T01:55:39;5.40;;;3.30;;
10805;SDS011;5455;53.224;6.000;2022-09-09T02:01:18;5.93;;;3.40;;
10805;SDS011;5455;53.224;6.000;2022-09-09T02:04:15;5.37;;;3.00;;
10805;SDS011;5455;53.224;6.000;2022-09-09T02:06:55;4.03;;;2.77;;
10805;SDS011;5455;53.224;6.000;2022-09-09T02:09:29;5.87;;;3.90;;
10805;SDS011;5455;53.224;6.000;2022-09-09T02:12:00;3.33;;;3.00;;
10805;SDS011;5455;53.224;6.000;2022-09-09T02:14:46;3.17;;;2.70;;
10805;SDS011;5455;53.224;6.000;2022-09-09T02:17:22;5.67;;;2.77;;
10805;SDS011;5455;53.224;6.000;2022-09-09T02:20:08;4.20;;;2.87;;
10805;SDS011;5455;53.224;6.000;2022-09-09T02:22:44;4.10;;;2.83;;
10805;SDS011;5455;53.224;6.000;2022-09-09T02:25:19;3.80;;;3.03;;
10805;SDS011;5455;53.224;6.000;2022-09-09T02:27:52;6.23;;;2.90;;
10805;SDS011;5455;53.224;6.000;2022-09-09T02:30:20;3.50;;;2.70;;
10805;SDS011;5455;53.224;6.000;2022-09-09T02:32:52;4.03;;;3.10;;
10805;SDS011;5455;53.224;6.000;2022-09-09T02:35:40;6.50;;;2.93;;
10805;SDS011;5455;53.224;6.000;2022-09-09T02:38:10;3.10;;;2.70;;
10805;SDS011;5455;53.224;6.000;2022-09-09T02:40:45;3.63;;;2.70;;
10805;SDS011;5455;53.224;6.000;2022-09-09T02:43:14;5.00;;;2.80;;
10805;SDS011;5455;53.224;6.000;2022-09-09T02:48:34;5.10;;;2.67;;
10805;SDS011;5455;53.224;6.000;2022-09-09T02:56:23;5.17;;;2.83;;
10805;SDS011;5455;53.224;6.000;2022-09-09T02:58:57;2.90;;;2.57;;
10805;SDS011;5455;53.224;6.000;2022-09-09T03:01:25;3.37;;;2.53;;
10805;SDS011;5455;53.224;6.000;2022-09-09T03:03:52;3.57;;;2.30;;
10805;SDS011;5455;53.224;6.000;2022-09-09T03:06:19;6.67;;;2.57;;
10805;SDS011;5455;53.224;6.000;2022-09-09T03:08:52;5.87;;;2.90;;
10805;SDS011;5455;53.224;6.000;2022-09-09T03:11:24;6.67;;;3.00;;
10805;SDS011;5455;53.224;6.000;2022-09-09T03:13:51;7.80;;;3.17;;
10805;SDS011;5455;53.224;6.000;2022-09-09T03:16:19;4.60;;;2.83;;
10805;SDS011;5455;53.224;6.000;2022-09-09T03:18:50;4.97;;;2.80;;
10805;SDS011;5455;53.224;6.000;2022-09-09T03:21:17;5.17;;;2.50;;
10805;SDS011;5455;53.224;6.000;2022-09-09T03:23:44;5.60;;;2.87;;
10805;SDS011;5455;53.224;6.000;2022-09-09T03:26:12;3.77;;;2.80;;
10805;SDS011;5455;53.224;6.000;2022-09-09T03:28:44;4.27;;;2.80;;
10805;SDS011;5455;53.224;6.000;2022-09-09T03:31:14;5.40;;;2.50;;
10805;SDS011;5455;53.224;6.000;2022-09-09T03:33:41;6.67;;;2.97;;
10805;SDS011;5455;53.224;6.000;2022-09-09T03:36:12;4.30;;;2.73;;
10805;SDS011;5455;53.224;6.000;2022-09-09T03:38:39;4.67;;;2.83;;
10805;SDS011;5455;53.224;6.000;2022-09-09T03:41:06;3.13;;;2.60;;
10805;SDS011;5455;53.224;6.000;2022-09-09T03:43:36;3.93;;;2.63;;
10805;SDS011;5455;53.224;6.000;2022-09-09T03:46:04;4.13;;;2.47;;
10805;SDS011;5455;53.224;6.000;2022-09-09T03:48:31;3.93;;;2.60;;
10805;SDS011;5455;53.224;6.000;2022-09-09T03:50:58;7.03;;;3.10;;
10805;SDS011;5455;53.224;6.000;2022-09-09T03:53:30;3.83;;;2.50;;
10805;SDS011;5455;53.224;6.000;2022-09-09T03:55:58;3.03;;;2.67;;
10805;SDS011;5455;53.224;6.000;2022-09-09T03:58:28;4.83;;;2.43;;
10805;SDS011;5455;53.224;6.000;2022-09-09T04:01:13;4.37;;;2.63;;
10805;SDS011;5455;53.224;6.000;2022-09-09T04:03:42;6.97;;;2.60;;
10805;SDS011;5455;53.224;6.000;2022-09-09T04:06:09;3.27;;;2.37;;
10805;SDS011;5455;53.224;6.000;2022-09-09T04:08:41;3.50;;;2.50;;
10805;SDS011;5455;53.224;6.000;2022-09-09T04:11:09;4.17;;;2.70;;
10805;SDS011;5455;53.224;6.000;2022-09-09T04:13:37;3.80;;;2.37;;
10805;SDS011;5455;53.224;6.000;2022-09-09T04:16:09;4.40;;;2.40;;
10805;SDS011;5455;53.224;6.000;2022-09-09T04:18:37;5.30;;;2.57;;
10805;SDS011;5455;53.224;6.000;2022-09-09T04:21:06;4.87;;;2.40;;
10805;SDS011;5455;53.224;6.000;2022-09-09T04:23:34;3.10;;;2.30;;
10805;SDS011;5455;53.224;6.000;2022-09-09T04:26:04;3.47;;;2.27;;
10805;SDS011;5455;53.224;6.000;2022-09-09T04:28:33;3.70;;;2.60;;
10805;SDS011;5455;53.224;6.000;2022-09-09T04:31:09;2.80;;;2.50;;
10805;SDS011;5455;53.224;6.000;2022-09-09T04:33:49;3.53;;;2.50;;
10805;SDS011;5455;53.224;6.000;2022-09-09T04:36:16;4.10;;;2.57;;
10805;SDS011;5455;53.224;6.000;2022-09-09T04:38:47;3.40;;;2.50;;
10805;SDS011;5455;53.224;6.000;2022-09-09T04:41:16;5.00;;;2.40;;
10805;SDS011;5455;53.224;6.000;2022-09-09T04:43:44;4.67;;;2.70;;
10805;SDS011;5455;53.224;6.000;2022-09-09T04:46:13;5.17;;;2.77;;
10805;SDS011;5455;53.224;6.000;2022-09-09T04:48:42;4.03;;;2.43;;
10805;SDS011;5455;53.224;6.000;2022-09-09T04:51:11;4.40;;;2.47;;
10805;SDS011;5455;53.224;6.000;2022-09-09T04:53:41;5.93;;;2.80;;
10805;SDS011;5455;53.224;6.000;2022-09-09T04:56:11;4.03;;;2.80;;
10805;SDS011;5455;53.224;6.000;2022-09-09T04:58:44;4.30;;;2.70;;
10805;SDS011;5455;53.224;6.000;2022-09-09T05:01:15;4.77;;;2.77;;
10805;SDS011;5455;53.224;6.000;2022-09-09T05:03:45;5.47;;;3.00;;
10805;SDS011;5455;53.224;6.000;2022-09-09T05:06:17;4.27;;;2.97;;
10805;SDS011;5455;53.224;6.000;2022-09-09T05:08:48;7.50;;;3.03;;
10805;SDS011;5455;53.224;6.000;2022-09-09T05:11:23;3.93;;;3.03;;
10805;SDS011;5455;53.224;6.000;2022-09-09T05:13:56;3.33;;;2.73;;
10805;SDS011;5455;53.224;6.000;2022-09-09T05:16:23;3.73;;;2.93;;
10805;SDS011;5455;53.224;6.000;2022-09-09T05:18:51;4.77;;;2.90;;
10805;SDS011;5455;53.224;6.000;2022-09-09T05:21:20;4.93;;;3.10;;
10805;SDS011;5455;53.224;6.000;2022-09-09T05:23:49;3.50;;;2.80;;
10805;SDS011;5455;53.224;6.000;2022-09-09T05:26:19;6.20;;;3.47;;
10805;SDS011;5455;53.224;6.000;2022-09-09T05:28:49;5.90;;;3.30;;
10805;SDS011;5455;53.224;6.000;2022-09-09T05:31:17;4.33;;;3.20;;
10805;SDS011;5455;53.224;6.000;2022-09-09T05:33:48;8.17;;;3.47;;
10805;SDS011;5455;53.224;6.000;2022-09-09T05:36:19;5.90;;;3.20;;
10805;SDS011;5455;53.224;6.000;2022-09-09T05:38:52;6.87;;;3.30;;
10805;SDS011;5455;53.224;6.000;2022-09-09T05:41:20;5.73;;;3.07;;
10805;SDS011;5455;53.224;6.000;2022-09-09T05:43:52;4.13;;;2.77;;
10805;SDS011;5455;53.224;6.000;2022-09-09T05:46:21;5.17;;;3.00;;
10805;SDS011;5455;53.224;6.000;2022-09-09T05:48:51;5.13;;;3.03;;
10805;SDS011;5455;53.224;6.000;2022-09-09T05:51:27;8.30;;;3.53;;
10805;SDS011;5455;53.224;6.000;2022-09-09T05:54:00;6.07;;;3.20;;
10805;SDS011;5455;53.224;6.000;2022-09-09T05:56:31;4.30;;;3.40;;
10805;SDS011;5455;53.224;6.000;2022-09-09T05:58:59;6.20;;;3.60;;
10805;SDS011;5455;53.224;6.000;2022-09-09T06:01:31;3.80;;;3.40;;
10805;SDS011;5455;53.224;6.000;2022-09-09T06:04:01;5.33;;;3.33;;
10805;SDS011;5455;53.224;6.000;2022-09-09T06:06:32;4.53;;;3.37;;
10805;SDS011;5455;53.224;6.000;2022-09-09T06:09:09;9.77;;;4.17;;
10805;SDS011;5455;53.224;6.000;2022-09-09T06:11:39;6.00;;;4.10;;
10805;SDS011;5455;53.224;6.000;2022-09-09T06:14:09;7.00;;;3.80;;
10805;SDS011;5455;53.224;6.000;2022-09-09T06:16:37;5.90;;;4.00;;
10805;SDS011;5455;53.224;6.000;2022-09-09T06:19:11;4.57;;;3.70;;
10805;SDS011;5455;53.224;6.000;2022-09-09T06:21:40;4.67;;;3.67;;
10805;SDS011;5455;53.224;6.000;2022-09-09T06:24:08;6.13;;;3.90;;
10805;SDS011;5455;53.224;6.000;2022-09-09T06:26:36;4.87;;;4.17;;
10805;SDS011;5455;53.224;6.000;2022-09-09T06:29:05;7.10;;;3.80;;
10805;SDS011;5455;53.224;6.000;2022-09-09T06:31:34;5.17;;;3.60;;
10805;SDS011;5455;53.224;6.000;2022-09-09T06:34:13;4.63;;;3.40;;
10805;SDS011;5455;53.224;6.000;2022-09-09T06:36:44;4.90;;;3.67;;
10805;SDS011;5455;53.224;6.000;2022-09-09T06:39:12;5.47;;;3.60;;
10805;SDS011;5455;53.224;6.000;2022-09-09T06:41:41;4.50;;;3.83;;
10805;SDS011;5455;53.224;6.000;2022-09-09T06:44:38;5.77;;;3.53;;
10805;SDS011;5455;53.224;6.000;2022-09-09T06:47:09;7.07;;;3.60;;
10805;SDS011;5455;53.224;6.000;2022-09-09T06:49:39;5.83;;;3.73;;
10805;SDS011;5455;53.224;6.000;2022-09-09T06:52:08;5.33;;;3.43;;
10805;SDS011;5455;53.224;6.000;2022-09-09T06:54:36;7.67;;;3.53;;
10805;SDS011;5455;53.224;6.000;2022-09-09T06:57:04;5.00;;;3.20;;
10805;SDS011;5455;53.224;6.000;2022-09-09T06:59:54;4.93;;;3.40;;
10805;SDS011;5455;53.224;6.000;2022-09-09T07:02:21;5.27;;;3.77;;
10805;SDS011;5455;53.224;6.000;2022-09-09T07:04:48;9.43;;;3.67;;
10805;SDS011;5455;53.224;6.000;2022-09-09T07:07:17;5.80;;;3.80;;
10805;SDS011;5455;53.224;6.000;2022-09-09T07:09:44;4.40;;;3.43;;
10805;SDS011;5455;53.224;6.000;2022-09-09T07:12:12;6.13;;;4.20;;
10805;SDS011;5455;53.224;6.000;2022-09-09T07:14:46;5.63;;;3.83;;
10805;SDS011;5455;53.224;6.000;2022-09-09T07:17:13;5.23;;;3.27;;
10805;SDS011;5455;53.224;6.000;2022-09-09T07:19:41;6.40;;;4.17;;
10805;SDS011;5455;53.224;6.000;2022-09-09T07:22:08;4.97;;;3.87;;
10805;SDS011;5455;53.224;6.000;2022-09-09T07:24:38;6.87;;;3.63;;
10805;SDS011;5455;53.224;6.000;2022-09-09T07:27:05;6.40;;;4.37;;
10805;SDS011;5455;53.224;6.000;2022-09-09T07:29:33;11.10;;;4.00;;
10805;SDS011;5455;53.224;6.000;2022-09-09T07:32:01;6.43;;;3.73;;
10805;SDS011;5455;53.224;6.000;2022-09-09T07:34:34;5.27;;;3.57;;
10805;SDS011;5455;53.224;6.000;2022-09-09T07:37:01;4.70;;;3.17;;
10805;SDS011;5455;53.224;6.000;2022-09-09T07:39:30;5.50;;;3.70;;
10805;SDS011;5455;53.224;6.000;2022-09-09T07:41:57;6.00;;;3.50;;
10805;SDS011;5455;53.224;6.000;2022-09-09T07:44:25;4.60;;;3.10;;
10805;SDS011;5455;53.224;6.000;2022-09-09T07:47:00;6.43;;;3.33;;
10805;SDS011;5455;53.224;6.000;2022-09-09T07:49:33;5.10;;;3.57;;
10805;SDS011;5455;53.224;6.000;2022-09-09T07:52:03;4.63;;;3.03;;
10805;SDS011;5455;53.224;6.000;2022-09-09T07:54:31;4.47;;;3.23;;
10805;SDS011;5455;53.224;6.000;2022-09-09T07:57:01;3.10;;;2.80;;
10805;SDS011;5455;53.224;6.000;2022-09-09T07:59:32;6.80;;;3.43;;
10805;SDS011;5455;53.224;6.000;2022-09-09T08:02:00;5.90;;;3.00;;
10805;SDS011;5455;53.224;6.000;2022-09-09T08:04:30;8.20;;;3.10;;
10805;SDS011;5455;53.224;6.000;2022-09-09T08:06:58;5.23;;;3.00;;
10805;SDS011;5455;53.224;6.000;2022-09-09T08:09:29;4.67;;;3.03;;
10805;SDS011;5455;53.224;6.000;2022-09-09T08:12:21;5.30;;;3.00;;
10805;SDS011;5455;53.224;6.000;2022-09-09T08:14:49;4.33;;;3.33;;
10805;SDS011;5455;53.224;6.000;2022-09-09T08:17:21;6.87;;;3.10;;
10805;SDS011;5455;53.224;6.000;2022-09-09T08:19:48;6.00;;;2.60;;
10805;SDS011;5455;53.224;6.000;2022-09-09T08:22:20;2.97;;;2.27;;
10805;SDS011;5455;53.224;6.000;2022-09-09T08:24:49;5.60;;;2.73;;
10805;SDS011;5455;53.224;6.000;2022-09-09T08:27:16;3.60;;;2.53;;
10805;SDS011;5455;53.224;6.000;2022-09-09T08:29:43;4.73;;;2.57;;
10805;SDS011;5455;53.224;6.000;2022-09-09T08:32:11;6.33;;;2.67;;
10805;SDS011;5455;53.224;6.000;2022-09-09T08:34:39;5.80;;;2.97;;
10805;SDS011;5455;53.224;6.000;2022-09-09T08:37:17;4.60;;;2.40;;
10805;SDS011;5455;53.224;6.000;2022-09-09T08:39:45;4.17;;;2.30;;
10805;SDS011;5455;53.224;6.000;2022-09-09T08:42:34;6.70;;;2.50;;
10805;SDS011;5455;53.224;6.000;2022-09-09T08:45:17;4.50;;;2.70;;
10805;SDS011;5455;53.224;6.000;2022-09-09T08:50:29;7.23;;;2.60;;
10805;SDS011;5455;53.224;6.000;2022-09-09T08:53:16;5.03;;;2.33;;
10805;SDS011;5455;53.224;6.000;2022-09-09T08:55:59;4.67;;;2.87;;
10805;SDS011;5455;53.224;6.000;2022-09-09T08:58:35;7.43;;;2.67;;
10805;SDS011;5455;53.224;6.000;2022-09-09T09:01:28;7.40;;;2.87;;
10805;SDS011;5455;53.224;6.000;2022-09-09T09:10:11;4.27;;;2.30;;
10805;SDS011;5455;53.224;6.000;2022-09-09T09:13:12;5.47;;;2.67;;
10805;SDS011;5455;53.224;6.000;2022-09-09T09:15:43;5.70;;;2.43;;
10805;SDS011;5455;53.224;6.000;2022-09-09T09:18:13;7.53;;;2.60;;
10805;SDS011;5455;53.224;6.000;2022-09-09T09:23:40;5.23;;;2.50;;
10805;SDS011;5455;53.224;6.000;2022-09-09T09:26:11;9.03;;;2.30;;
10805;SDS011;5455;53.224;6.000;2022-09-09T09:28:39;4.57;;;1.77;;
10805;SDS011;5455;53.224;6.000;2022-09-09T09:31:12;5.67;;;2.07;;
10805;SDS011;5455;53.224;6.000;2022-09-09T09:36:23;4.73;;;2.00;;
10805;SDS011;5455;53.224;6.000;2022-09-09T09:39:02;6.90;;;1.60;;
10805;SDS011;5455;53.224;6.000;2022-09-09T09:41:52;5.67;;;2.03;;
10805;SDS011;5455;53.224;6.000;2022-09-09T09:44:24;6.07;;;1.93;;
10805;SDS011;5455;53.224;6.000;2022-09-09T09:47:05;5.53;;;1.70;;
10805;SDS011;5455;53.224;6.000;2022-09-09T09:49:35;5.00;;;1.50;;
10805;SDS011;5455;53.224;6.000;2022-09-09T09:52:03;2.73;;;1.60;;
10805;SDS011;5455;53.224;6.000;2022-09-09T09:54:32;3.10;;;1.37;;
10805;SDS011;5455;53.224;6.000;2022-09-09T09:57:10;3.63;;;1.47;;
10805;SDS011;5455;53.224;6.000;2022-09-09T09:59:41;4.80;;;1.80;;
10805;SDS011;5455;53.224;6.000;2022-09-09T10:02:24;4.53;;;1.80;;
10805;SDS011;5455;53.224;6.000;2022-09-09T10:05:05;4.07;;;1.67;;
10805;SDS011;5455;53.224;6.000;2022-09-09T10:08:00;6.10;;;1.70;;
10805;SDS011;5455;53.224;6.000;2022-09-09T10:10:51;9.20;;;1.73;;
10805;SDS011;5455;53.224;6.000;2022-09-09T10:13:37;2.53;;;1.30;;
10805;SDS011;5455;53.224;6.000;2022-09-09T10:19:00;3.17;;;1.20;;
10805;SDS011;5455;53.224;6.000;2022-09-09T10:21:41;7.00;;;1.70;;
10805;SDS011;5455;53.224;6.000;2022-09-09T10:24:48;4.30;;;1.50;;
10805;SDS011;5455;53.224;6.000;2022-09-09T10:27:24;4.73;;;1.40;;
10805;SDS011;5455;53.224;6.000;2022-09-09T10:32:48;5.13;;;1.30;;
10805;SDS011;5455;53.224;6.000;2022-09-09T10:38:15;4.93;;;1.90;;
10805;SDS011;5455;53.224;6.000;2022-09-09T10:46:31;5.10;;;1.30;;
10805;SDS011;5455;53.224;6.000;2022-09-09T10:55:14;4.47;;;1.27;;
10805;SDS011;5455;53.224;6.000;2022-09-09T10:57:50;4.53;;;1.10;;
10805;SDS011;5455;53.224;6.000;2022-09-09T11:00:21;2.50;;;1.10;;
10805;SDS011;5455;53.224;6.000;2022-09-09T11:02:58;4.07;;;1.33;;
10805;SDS011;5455;53.224;6.000;2022-09-09T11:05:44;8.43;;;1.30;;
10805;SDS011;5455;53.224;6.000;2022-09-09T11:08:19;4.70;;;1.37;;
10805;SDS011;5455;53.224;6.000;2022-09-09T11:11:03;3.63;;;0.90;;
10805;SDS011;5455;53.224;6.000;2022-09-09T11:16:24;2.10;;;0.63;;
10805;SDS011;5455;53.224;6.000;2022-09-09T11:19:13;5.93;;;1.10;;
10805;SDS011;5455;53.224;6.000;2022-09-09T11:21:48;4.07;;;1.00;;
10805;SDS011;5455;53.224;6.000;2022-09-09T11:26:46;4.50;;;1.00;;
10805;SDS011;5455;53.224;6.000;2022-09-09T11:34:50;5.63;;;1.20;;
10805;SDS011;5455;53.224;6.000;2022-09-09T11:40:20;6.93;;;0.97;;
10805;SDS011;5455;53.224;6.000;2022-09-09T11:43:04;4.30;;;0.97;;
10805;SDS011;5455;53.224;6.000;2022-09-09T11:45:36;7.03;;;1.03;;
10805;SDS011;5455;53.224;6.000;2022-09-09T11:48:03;3.77;;;0.80;;
10805;SDS011;5455;53.224;6.000;2022-09-09T11:50:35;1.67;;;0.90;;
10805;SDS011;5455;53.224;6.000;2022-09-09T11:53:05;2.27;;;0.90;;
10805;SDS011;5455;53.224;6.000;2022-09-09T11:55:33;2.40;;;0.87;;
10805;SDS011;5455;53.224;6.000;2022-09-09T11:58:03;3.20;;;0.67;;
10805;SDS011;5455;53.224;6.000;2022-09-09T12:03:04;5.70;;;1.00;;
10805;SDS011;5455;53.224;6.000;2022-09-09T12:05:42;6.80;;;0.90;;
10805;SDS011;5455;53.224;6.000;2022-09-09T12:08:16;7.17;;;1.10;;
10805;SDS011;5455;53.224;6.000;2022-09-09T12:10:58;2.20;;;0.90;;
10805;SDS011;5455;53.224;6.000;2022-09-09T12:13:29;2.70;;;0.77;;
10805;SDS011;5455;53.224;6.000;2022-09-09T12:15:58;6.40;;;0.90;;
10805;SDS011;5455;53.224;6.000;2022-09-09T12:23:52;3.87;;;1.13;;
10805;SDS011;5455;53.224;6.000;2022-09-09T12:31:51;4.33;;;1.07;;
10805;SDS011;5455;53.224;6.000;2022-09-09T12:34:35;2.73;;;1.00;;
10805;SDS011;5455;53.224;6.000;2022-09-09T12:37:35;5.10;;;1.00;;
10805;SDS011;5455;53.224;6.000;2022-09-09T12:40:22;5.87;;;1.00;;
10805;SDS011;5455;53.224;6.000;2022-09-09T12:42:51;5.23;;;1.03;;
10805;SDS011;5455;53.224;6.000;2022-09-09T12:45:19;4.77;;;1.00;;
10805;SDS011;5455;53.224;6.000;2022-09-09T12:47:49;4.70;;;1.03;;
10805;SDS011;5455;53.224;6.000;2022-09-09T12:50:22;5.33;;;1.07;;
10805;SDS011;5455;53.224;6.000;2022-09-09T12:52:50;2.17;;;1.10;;
10805;SDS011;5455;53.224;6.000;2022-09-09T12:55:21;5.17;;;0.90;;
10805;SDS011;5455;53.224;6.000;2022-09-09T12:57:51;7.17;;;1.03;;
10805;SDS011;5455;53.224;6.000;2022-09-09T13:00:19;5.07;;;1.07;;
10805;SDS011;5455;53.224;6.000;2022-09-09T13:02:51;3.87;;;1.07;;
10805;SDS011;5455;53.224;6.000;2022-09-09T13:05:21;4.20;;;1.27;;
10805;SDS011;5455;53.224;6.000;2022-09-09T13:07:49;7.50;;;1.20;;
10805;SDS011;5455;53.224;6.000;2022-09-09T13:10:26;3.83;;;1.00;;
10805;SDS011;5455;53.224;6.000;2022-09-09T13:13:19;3.43;;;1.00;;
10805;SDS011;5455;53.224;6.000;2022-09-09T13:16:18;6.67;;;1.00;;
10805;SDS011;5455;53.224;6.000;2022-09-09T13:19:13;4.90;;;0.83;;
10805;SDS011;5455;53.224;6.000;2022-09-09T13:21:42;3.70;;;0.93;;
10805;SDS011;5455;53.224;6.000;2022-09-09T13:24:26;2.10;;;0.87;;
10805;SDS011;5455;53.224;6.000;2022-09-09T13:26:58;9.27;;;1.40;;
10805;SDS011;5455;53.224;6.000;2022-09-09T13:29:28;3.37;;;1.30;;
10805;SDS011;5455;53.224;6.000;2022-09-09T13:32:04;2.67;;;1.23;;
10805;SDS011;5455;53.224;6.000;2022-09-09T13:34:33;2.60;;;0.97;;
10805;SDS011;5455;53.224;6.000;2022-09-09T13:37:02;4.23;;;1.07;;
10805;SDS011;5455;53.224;6.000;2022-09-09T13:39:33;4.67;;;1.20;;
10805;SDS011;5455;53.224;6.000;2022-09-09T13:42:03;3.00;;;1.00;;
10805;SDS011;5455;53.224;6.000;2022-09-09T13:44:31;2.10;;;0.90;;
10805;SDS011;5455;53.224;6.000;2022-09-09T13:47:04;3.00;;;0.93;;
10805;SDS011;5455;53.224;6.000;2022-09-09T13:49:36;1.70;;;0.80;;
10805;SDS011;5455;53.224;6.000;2022-09-09T13:52:04;3.07;;;0.83;;
10805;SDS011;5455;53.224;6.000;2022-09-09T13:54:40;5.93;;;0.90;;
10805;SDS011;5455;53.224;6.000;2022-09-09T13:57:15;3.93;;;0.70;;
10805;SDS011;5455;53.224;6.000;2022-09-09T13:59:45;6.90;;;2.50;;
10805;SDS011;5455;53.224;6.000;2022-09-09T14:02:30;4.03;;;1.37;;
10805;SDS011;5455;53.224;6.000;2022-09-09T14:04:57;3.63;;;1.10;;
10805;SDS011;5455;53.224;6.000;2022-09-09T14:07:24;1.83;;;1.00;;
10805;SDS011;5455;53.224;6.000;2022-09-09T14:09:51;5.17;;;1.20;;
10805;SDS011;5455;53.224;6.000;2022-09-09T14:12:19;2.87;;;1.20;;
10805;SDS011;5455;53.224;6.000;2022-09-09T14:14:46;3.50;;;1.20;;
10805;SDS011;5455;53.224;6.000;2022-09-09T14:17:13;5.80;;;0.97;;
10805;SDS011;5455;53.224;6.000;2022-09-09T14:19:41;5.10;;;0.90;;
10805;SDS011;5455;53.224;6.000;2022-09-09T14:22:09;2.13;;;0.70;;
10805;SDS011;5455;53.224;6.000;2022-09-09T14:24:36;7.30;;;1.13;;
10805;SDS011;5455;53.224;6.000;2022-09-09T14:27:03;2.93;;;0.80;;
10805;SDS011;5455;53.224;6.000;2022-09-09T14:29:30;20.80;;;9.00;;
10805;SDS011;5455;53.224;6.000;2022-09-09T14:31:57;4.30;;;2.10;;
10805;SDS011;5455;53.224;6.000;2022-09-09T14:34:24;1.13;;;0.57;;
10805;SDS011;5455;53.224;6.000;2022-09-09T14:36:52;1.17;;;0.70;;
10805;SDS011;5455;53.224;6.000;2022-09-09T14:39:19;1.37;;;0.50;;
10805;SDS011;5455;53.224;6.000;2022-09-09T14:41:46;1.97;;;0.63;;
10805;SDS011;5455;53.224;6.000;2022-09-09T14:44:13;1.97;;;0.47;;
10805;SDS011;5455;53.224;6.000;2022-09-09T14:46:40;2.50;;;0.77;;
10805;SDS011;5455;53.224;6.000;2022-09-09T14:49:08;1.63;;;1.03;;
10805;SDS011;5455;53.224;6.000;2022-09-09T14:51:36;4.20;;;0.70;;
10805;SDS011;5455;53.224;6.000;2022-09-09T14:54:03;2.57;;;0.90;;
10805;SDS011;5455;53.224;6.000;2022-09-09T14:56:31;2.43;;;0.60;;
10805;SDS011;5455;53.224;6.000;2022-09-09T14:59:02;1.70;;;0.70;;
10805;SDS011;5455;53.224;6.000;2022-09-09T15:01:30;2.50;;;0.60;;
10805;SDS011;5455;53.224;6.000;2022-09-09T15:03:59;1.53;;;0.60;;
10805;SDS011;5455;53.224;6.000;2022-09-09T15:06:30;2.03;;;0.60;;
10805;SDS011;5455;53.224;6.000;2022-09-09T15:09:00;3.03;;;0.70;;
10805;SDS011;5455;53.224;6.000;2022-09-09T15:11:28;1.63;;;0.70;;
10805;SDS011;5455;53.224;6.000;2022-09-09T15:14:01;2.07;;;0.60;;
10805;SDS011;5455;53.224;6.000;2022-09-09T15:16:27;2.93;;;0.67;;
10805;SDS011;5455;53.224;6.000;2022-09-09T15:18:56;3.73;;;0.80;;
10805;SDS011;5455;53.224;6.000;2022-09-09T15:21:24;3.37;;;0.70;;
10805;SDS011;5455;53.224;6.000;2022-09-09T15:23:53;1.80;;;0.80;;
10805;SDS011;5455;53.224;6.000;2022-09-09T15:26:21;1.60;;;0.70;;
10805;SDS011;5455;53.224;6.000;2022-09-09T15:28:48;2.27;;;0.70;;
10805;SDS011;5455;53.224;6.000;2022-09-09T15:31:18;1.10;;;0.53;;
10805;SDS011;5455;53.224;6.000;2022-09-09T15:33:48;0.73;;;0.57;;
10805;SDS011;5455;53.224;6.000;2022-09-09T15:36:15;3.17;;;1.03;;
10805;SDS011;5455;53.224;6.000;2022-09-09T15:38:44;2.07;;;1.10;;
10805;SDS011;5455;53.224;6.000;2022-09-09T15:41:13;3.83;;;1.33;;
10805;SDS011;5455;53.224;6.000;2022-09-09T15:43:44;1.97;;;1.00;;
10805;SDS011;5455;53.224;6.000;2022-09-09T15:49:05;3.20;;;0.83;;
10805;SDS011;5455;53.224;6.000;2022-09-09T15:51:53;1.00;;;0.80;;
10805;SDS011;5455;53.224;6.000;2022-09-09T15:54:22;3.50;;;0.77;;
10805;SDS011;5455;53.224;6.000;2022-09-09T15:56:53;1.63;;;0.70;;
10805;SDS011;5455;53.224;6.000;2022-09-09T15:59:22;3.43;;;1.00;;
10805;SDS011;5455;53.224;6.000;2022-09-09T16:01:54;2.17;;;1.00;;
10805;SDS011;5455;53.224;6.000;2022-09-09T16:04:22;4.17;;;1.00;;
10805;SDS011;5455;53.224;6.000;2022-09-09T16:06:51;1.30;;;0.70;;
10805;SDS011;5455;53.224;6.000;2022-09-09T16:09:19;1.80;;;0.90;;
10805;SDS011;5455;53.224;6.000;2022-09-09T16:11:47;1.17;;;0.80;;
10805;SDS011;5455;53.224;6.000;2022-09-09T16:14:14;2.10;;;1.10;;
10805;SDS011;5455;53.224;6.000;2022-09-09T16:16:42;6.10;;;3.33;;
10805;SDS011;5455;53.224;6.000;2022-09-09T16:19:10;1.77;;;1.10;;
10805;SDS011;5455;53.224;6.000;2022-09-09T16:21:43;2.47;;;1.07;;
10805;SDS011;5455;53.224;6.000;2022-09-09T16:24:13;1.43;;;1.23;;
10805;SDS011;5455;53.224;6.000;2022-09-09T16:26:43;1.57;;;0.90;;
10805;SDS011;5455;53.224;6.000;2022-09-09T16:29:12;1.87;;;0.83;;
10805;SDS011;5455;53.224;6.000;2022-09-09T16:31:40;0.90;;;0.80;;
10805;SDS011;5455;53.224;6.000;2022-09-09T16:34:08;2.03;;;0.80;;
10805;SDS011;5455;53.224;6.000;2022-09-09T16:36:36;0.80;;;0.80;;
10805;SDS011;5455;53.224;6.000;2022-09-09T16:39:06;1.60;;;0.80;;
10805;SDS011;5455;53.224;6.000;2022-09-09T16:41:44;1.37;;;0.90;;
10805;SDS011;5455;53.224;6.000;2022-09-09T16:44:12;1.93;;;1.00;;
10805;SDS011;5455;53.224;6.000;2022-09-09T16:46:41;0.97;;;0.80;;
10805;SDS011;5455;53.224;6.000;2022-09-09T16:49:09;4.47;;;1.03;;
10805;SDS011;5455;53.224;6.000;2022-09-09T16:51:42;2.40;;;0.90;;
10805;SDS011;5455;53.224;6.000;2022-09-09T16:54:14;1.30;;;0.80;;
10805;SDS011;5455;53.224;6.000;2022-09-09T16:56:43;2.80;;;1.23;;
10805;SDS011;5455;53.224;6.000;2022-09-09T16:59:15;0.97;;;0.83;;
10805;SDS011;5455;53.224;6.000;2022-09-09T17:01:44;3.50;;;0.90;;
10805;SDS011;5455;53.224;6.000;2022-09-09T17:04:17;2.67;;;0.90;;
10805;SDS011;5455;53.224;6.000;2022-09-09T17:06:47;1.80;;;1.07;;
10805;SDS011;5455;53.224;6.000;2022-09-09T17:09:15;2.37;;;1.10;;
10805;SDS011;5455;53.224;6.000;2022-09-09T17:11:43;1.73;;;1.20;;